Positano Jet — IFTU — position and weather

sailwx.info

Track history (hours):
 
Tides and Currents Weather Stations Pressure Air Temp Water Temp Dewpoint Dewpoint Depression Visibility Wind Speed Wind Dir Waves Ship Positions

Positano Jet

Last reported at 2015-Aug-30 13:31 UTC. Time now 2015-Aug-30 14:01 UTC.
Position N 40°34' E 014°20'.

Length 23 m; draft 2 m.

Type: Ship. MMSI: 247160800.

Date/timePositionNaut miles runAvg speedWind from/ knotsBaromVisibWave heightAir tempDewpointWater temp
2015-Aug-30 13:31N 40°34' E 014°20'3 3.0
2015-Aug-30 12:33N 40°34' E 014°16'1010.3
2015-Aug-30 11:34N 40°38' E 014°29'7 5.6
2015-Aug-30 10:17N 40°34' E 014°21'5 6.5
2015-Aug-30 09:31N 40°33' E 014°14'1111.1
2015-Aug-30 08:33N 40°36' E 014°28'2 1.1
2015-Aug-30 06:23N 40°36' E 014°31'2 0.1
2015-Aug-29 17:33N 40°37' E 014°29'1010.5
2015-Aug-29 16:33N 40°34' E 014°16'3 1.1
2015-Aug-29 13:29N 40°34' E 014°21'2 2.4
2015-Aug-29 12:31N 40°34' E 014°18'1 0.5
2015-Aug-29 10:14N 40°34' E 014°19'4 5.3
2015-Aug-29 09:33N 40°33' E 014°14'9 0.6
2015-Aug-28 17:30N 40°36' E 014°26'5 1.1
2015-Aug-28 13:29N 40°34' E 014°20'3 2.7
2015-Aug-28 12:33N 40°34' E 014°17'3 1.2
2015-Aug-28 10:21N 40°34' E 014°20'5 5.7
2015-Aug-28 09:33N 40°33' E 014°14'8 0.5
2015-Aug-27 17:25N 40°36' E 014°25'5 6.2
2015-Aug-27 16:32N 40°34' E 014°18'2 0.6
2015-Aug-27 13:26N 40°34' E 014°21'3 3.1
2015-Aug-27 12:33N 40°34' E 014°17'4 1.9
2015-Aug-27 10:21N 40°34' E 014°22'6 7.6
2015-Aug-27 09:31N 40°33' E 014°14'12 9.6
2015-Aug-27 08:16N 40°38' E 014°29'1 0.1
2015-Aug-26 17:31N 40°37' E 014°28'8 8.4
2015-Aug-26 16:33N 40°34' E 014°18'3 1.1
2015-Aug-26 13:31N 40°35' E 014°22'4 4.3
2015-Aug-26 12:33N 40°34' E 014°17'10 0.5
2015-Aug-25 17:33N 40°37' E 014°29'8 8.3
2015-Aug-25 16:33N 40°34' E 014°19'9 8.3
2015-Aug-25 15:32N 40°37' E 014°29'6 3.1
2015-Aug-25 13:33N 40°35' E 014°22'4 3.9
2015-Aug-25 12:33N 40°34' E 014°17'1 0.4
2015-Aug-25 10:17N 40°34' E 014°18'3 4.1
2015-Aug-25 09:33N 40°33' E 014°14'1211.7
2015-Aug-25 08:33N 40°37' E 014°29'6 0.4
2015-Aug-24 17:19N 40°35' E 014°22'3 4.0
2015-Aug-24 16:34N 40°34' E 014°18'2 0.8
2015-Aug-24 13:33N 40°34' E 014°22'3 3.3
2015-Aug-24 12:32N 40°34' E 014°17'1 0.4
2015-Aug-24 10:28N 40°34' E 014°18'3 3.0
2015-Aug-24 09:30N 40°33' E 014°14'1111.3
2015-Aug-24 08:32N 40°37' E 014°28'8 0.5
2015-Aug-23 17:12N 40°34' E 014°19'3 0.7
2015-Aug-23 13:31N 40°35' E 014°22'4 4.2
2015-Aug-23 12:33N 40°34' E 014°17'4 1.9
2015-Aug-23 10:21N 40°35' E 014°22'6 7.7
2015-Aug-23 09:33N 40°33' E 014°14'9 0.5
2015-Aug-22 17:25N 40°36' E 014°25'6 1.5
2015-Aug-22 13:30N 40°34' E 014°18'5 5.5
2015-Aug-22 12:33N 40°38' E 014°23'3 1.3
2015-Aug-22 10:28N 40°36' E 014°25'9 9.3
2015-Aug-22 09:32N 40°33' E 014°14'9 0.5
2015-Aug-21 17:30N 40°36' E 014°25'5 1.3
2015-Aug-21 13:23N 40°34' E 014°19'1 1.5
2015-Aug-21 12:33N 40°34' E 014°17'4 1.8
2015-Aug-21 10:22N 40°35' E 014°22'6 7.3
2015-Aug-21 09:33N 40°33' E 014°14'1111.2
2015-Aug-21 08:32N 40°37' E 014°28'3 0.2
2015-Aug-20 17:25N 40°36' E 014°25'2 2.4
2015-Aug-20 16:26N 40°35' E 014°22'  
Track history (hours):
 
Tides and Currents Weather Stations Pressure Air Temp Water Temp Dewpoint Dewpoint Depression Visibility Wind Speed Wind Dir Waves Ship Positions

Positano Jet

Last reported at 2015-Aug-30 13:31 UTC. Time now 2015-Aug-30 14:01 UTC.
Position N 40°34' E 014°20'.

Length 23 m; draft 2 m.

Type: Ship. MMSI: 247160800.

Date/timePositionNaut miles runAvg speedWind from/ knotsBaromVisibWave heightAir tempDewpointWater temp
2015-Aug-30 13:31N 40°34' E 014°20'3 3.0
2015-Aug-30 12:33N 40°34' E 014°16'1010.3
2015-Aug-30 11:34N 40°38' E 014°29'7 5.6
2015-Aug-30 10:17N 40°34' E 014°21'5 6.5
2015-Aug-30 09:31N 40°33' E 014°14'1111.1
2015-Aug-30 08:33N 40°36' E 014°28'2 1.1
2015-Aug-30 06:23N 40°36' E 014°31'2 0.1
2015-Aug-29 17:33N 40°37' E 014°29'1010.5
2015-Aug-29 16:33N 40°34' E 014°16'3 1.1
2015-Aug-29 13:29N 40°34' E 014°21'2 2.4
2015-Aug-29 12:31N 40°34' E 014°18'1 0.5
2015-Aug-29 10:14N 40°34' E 014°19'4 5.3
2015-Aug-29 09:33N 40°33' E 014°14'9 0.6
2015-Aug-28 17:30N 40°36' E 014°26'5 1.1
2015-Aug-28 13:29N 40°34' E 014°20'3 2.7
2015-Aug-28 12:33N 40°34' E 014°17'3 1.2
2015-Aug-28 10:21N 40°34' E 014°20'5 5.7
2015-Aug-28 09:33N 40°33' E 014°14'8 0.5
2015-Aug-27 17:25N 40°36' E 014°25'5 6.2
2015-Aug-27 16:32N 40°34' E 014°18'2 0.6
2015-Aug-27 13:26N 40°34' E 014°21'3 3.1
2015-Aug-27 12:33N 40°34' E 014°17'4 1.9
2015-Aug-27 10:21N 40°34' E 014°22'6 7.6
2015-Aug-27 09:31N 40°33' E 014°14'12 9.6
2015-Aug-27 08:16N 40°38' E 014°29'1 0.1
2015-Aug-26 17:31N 40°37' E 014°28'8 8.4
2015-Aug-26 16:33N 40°34' E 014°18'3 1.1
2015-Aug-26 13:31N 40°35' E 014°22'4 4.3
2015-Aug-26 12:33N 40°34' E 014°17'10 0.5
2015-Aug-25 17:33N 40°37' E 014°29'8 8.3
2015-Aug-25 16:33N 40°34' E 014°19'9 8.3
2015-Aug-25 15:32N 40°37' E 014°29'6 3.1
2015-Aug-25 13:33N 40°35' E 014°22'4 3.9
2015-Aug-25 12:33N 40°34' E 014°17'1 0.4
2015-Aug-25 10:17N 40°34' E 014°18'3 4.1
2015-Aug-25 09:33N 40°33' E 014°14'1211.7
2015-Aug-25 08:33N 40°37' E 014°29'6 0.4
2015-Aug-24 17:19N 40°35' E 014°22'3 4.0
2015-Aug-24 16:34N 40°34' E 014°18'2 0.8
2015-Aug-24 13:33N 40°34' E 014°22'3 3.3
2015-Aug-24 12:32N 40°34' E 014°17'1 0.4
2015-Aug-24 10:28N 40°34' E 014°18'3 3.0
2015-Aug-24 09:30N 40°33' E 014°14'1111.3
2015-Aug-24 08:32N 40°37' E 014°28'8 0.5
2015-Aug-23 17:12N 40°34' E 014°19'3 0.7
2015-Aug-23 13:31N 40°35' E 014°22'4 4.2
2015-Aug-23 12:33N 40°34' E 014°17'4 1.9
2015-Aug-23 10:21N 40°35' E 014°22'6 7.7
2015-Aug-23 09:33N 40°33' E 014°14'9 0.5
2015-Aug-22 17:25N 40°36' E 014°25'6 1.5
2015-Aug-22 13:30N 40°34' E 014°18'5 5.5
2015-Aug-22 12:33N 40°38' E 014°23'3 1.3
2015-Aug-22 10:28N 40°36' E 014°25'9 9.3
2015-Aug-22 09:32N 40°33' E 014°14'9 0.5
2015-Aug-21 17:30N 40°36' E 014°25'5 1.3
2015-Aug-21 13:23N 40°34' E 014°19'1 1.5
2015-Aug-21 12:33N 40°34' E 014°17'4 1.8
2015-Aug-21 10:22N 40°35' E 014°22'6 7.3
2015-Aug-21 09:33N 40°33' E 014°14'1111.2
2015-Aug-21 08:32N 40°37' E 014°28'3 0.2
2015-Aug-20 17:25N 40°36' E 014°25'2 2.4
2015-Aug-20 16:26N 40°35' E 014°22'  

Dump ship's entire track history